Time,TemperatureF,DewpointF,PressureIn,WindDirection,WindDirectionDegrees,WindSpeedMPH,WindSpeedGustMPH,Humidity,HourlyPrecipIn,Conditions,Clouds,dailyrainin,SolarRadiationWatts/m^2,SoftwareType,DateUTC
2013-07-12 00:28:00,56.5,54.5,30.28,East,90,0.0,0.0,93,0.00,,,0.00,0,Wunderground v.1.15,2013-07-11 23:28:00,
2013-07-12 00:58:00,56.3,54.3,30.27,East,90,2.0,2.0,93,0.00,,,0.00,0,Wunderground v.1.15,2013-07-11 23:58:00,
2013-07-12 01:58:00,54.9,52.9,30.27,East,90,0.0,0.0,93,0.00,,,0.00,0,Wunderground v.1.15,2013-07-12 00:58:00,
2013-07-12 02:28:00,53.9,51.9,30.27,East,90,0.0,1.0,93,0.00,,,0.00,0,Wunderground v.1.15,2013-07-12 01:28:00,
2013-07-12 02:58:00,53.4,51.7,30.27,East,89,0.0,0.0,94,0.00,,,0.00,0,Wunderground v.1.15,2013-07-12 01:58:00,
2013-07-12 03:28:00,53.1,51.4,30.27,East,90,1.0,1.0,94,0.00,,,0.00,0,Wunderground v.1.15,2013-07-12 02:28:00,
2013-07-12 03:58:00,53.3,52.2,30.27,East,90,4.0,4.0,96,0.00,,,0.00,0,Wunderground v.1.15,2013-07-12 02:58:00,
2013-07-12 04:28:00,53.0,51.6,30.26,East,90,0.0,0.0,95,0.00,,,0.00,0,Wunderground v.1.15,2013-07-12 03:28:00,
2013-07-12 05:28:00,51.9,50.5,30.26,East,90,0.0,2.0,95,0.00,,,0.00,7,Wunderground v.1.15,2013-07-12 04:28:00,
2013-07-12 05:58:00,53.0,51.9,30.27,East,90,0.0,0.0,96,0.00,,,0.00,28,Wunderground v.1.15,2013-07-12 04:58:00,
2013-07-12 06:28:00,54.1,53.3,30.27,East,90,0.0,1.0,97,0.00,,,0.00,67,Wunderground v.1.15,2013-07-12 05:28:00,
2013-07-12 06:58:00,55.5,54.4,30.27,East,90,0.0,0.0,96,0.00,,,0.00,128,Wunderground v.1.15,2013-07-12 05:58:00,
2013-07-12 07:28:00,57.0,55.9,30.27,East,90,0.0,0.0,96,0.00,,,0.00,186,Wunderground v.1.15,2013-07-12 06:28:00,
2013-07-12 07:58:00,59.5,57.5,30.28,East,90,0.0,0.0,93,0.00,,,0.00,264,Wunderground v.1.15,2013-07-12 06:58:00,
2013-07-12 08:28:00,62.6,59.6,30.28,East,90,0.0,0.0,90,0.00,,,0.00,334,Wunderground v.1.15,2013-07-12 07:28:00,
2013-07-12 08:58:00,65.4,59.8,30.28,East,90,1.0,1.0,82,0.00,,,0.00,411,Wunderground v.1.15,2013-07-12 07:58:00,
2013-07-12 09:28:00,68.1,61.7,30.28,East,90,1.0,2.0,80,0.00,,,0.00,473,Wunderground v.1.15,2013-07-12 08:28:00,
2013-07-12 09:58:00,68.8,60.9,30.28,East,90,3.0,5.0,76,0.00,,,0.00,541,Wunderground v.1.15,2013-07-12 08:58:00,
2013-07-12 10:28:00,71.3,62.2,30.28,East,90,4.0,4.0,73,0.00,,,0.00,601,Wunderground v.1.15,2013-07-12 09:28:00,
2013-07-12 10:58:00,72.8,61.6,30.28,SSE,148,4.0,4.0,68,0.00,,,0.00,650,Wunderground v.1.15,2013-07-12 09:58:00,
2013-07-12 11:28:00,74.2,62.1,30.27,South,184,3.0,3.0,66,0.00,,,0.00,701,Wunderground v.1.15,2013-07-12 10:28:00,
2013-07-12 11:58:00,74.9,61.5,30.27,SSW,198,2.0,2.0,63,0.00,,,0.00,751,Wunderground v.1.15,2013-07-12 10:58:00,
2013-07-12 12:28:00,76.8,62.3,30.27,WSW,249,4.0,4.0,61,0.00,,,0.00,782,Wunderground v.1.15,2013-07-12 11:28:00,
2013-07-12 12:58:00,79.0,62.5,30.27,WNW,292,4.0,4.0,57,0.00,,,0.00,807,Wunderground v.1.15,2013-07-12 11:58:00,
2013-07-12 13:28:00,78.9,63.4,30.27,WNW,300,2.0,3.0,59,0.00,,,0.00,824,Wunderground v.1.15,2013-07-12 12:28:00,
2013-07-12 13:58:00,80.1,63.0,30.26,NW,306,3.0,6.0,56,0.00,,,0.00,796,Wunderground v.1.15,2013-07-12 12:58:00,
2013-07-12 14:28:00,81.0,62.8,30.26,NW,311,4.0,4.0,54,0.00,,,0.00,793,Wunderground v.1.15,2013-07-12 13:28:00,
2013-07-12 14:58:00,82.0,62.1,30.25,NW,309,4.0,7.0,51,0.00,,,0.00,779,Wunderground v.1.15,2013-07-12 13:58:00,
2013-07-12 15:28:00,80.7,65.5,30.25,East,97,4.0,8.0,60,0.00,,,0.00,752,Wunderground v.1.15,2013-07-12 14:28:00,
2013-07-12 15:58:00,78.5,65.3,30.25,SE,135,7.0,9.0,64,0.00,,,0.00,694,Wunderground v.1.15,2013-07-12 14:58:00,
2013-07-12 16:28:00,77.9,63.8,30.24,SSE,163,8.0,8.0,62,0.00,,,0.00,638,Wunderground v.1.15,2013-07-12 15:28:00,
2013-07-12 16:58:00,77.6,62.6,30.24,SE,142,8.0,8.0,60,0.00,,,0.00,584,Wunderground v.1.15,2013-07-12 15:58:00,
2013-07-12 17:28:00,78.3,63.3,30.24,SSE,150,6.0,6.0,60,0.00,,,0.00,513,Wunderground v.1.15,2013-07-12 16:28:00,
2013-07-12 17:58:00,77.6,64.0,30.23,SSE,153,6.0,6.0,63,0.00,,,0.00,425,Wunderground v.1.15,2013-07-12 16:58:00,
2013-07-12 18:28:00,76.9,62.4,30.23,South,169,7.0,7.0,61,0.00,,,0.00,357,Wunderground v.1.15,2013-07-12 17:28:00,
2013-07-12 18:58:00,76.3,61.4,30.23,SSE,148,6.0,7.0,60,0.00,,,0.00,283,Wunderground v.1.15,2013-07-12 17:58:00,
2013-07-12 19:28:00,75.2,62.2,30.23,SSE,157,3.0,4.0,64,0.00,,,0.00,204,Wunderground v.1.15,2013-07-12 18:28:00,
2013-07-12 20:28:00,72.5,60.9,30.23,SSE,157,3.0,3.0,67,0.00,,,0.00,51,Wunderground v.1.15,2013-07-12 19:28:00,
2013-07-12 20:58:00,71.0,59.5,30.24,South,173,6.0,7.0,67,0.00,,,0.00,30,Wunderground v.1.15,2013-07-12 19:58:00,
2013-07-12 21:28:00,68.4,58.2,30.24,South,173,7.0,8.0,70,0.00,,,0.00,7,Wunderground v.1.15,2013-07-12 20:28:00,
2013-07-12 22:28:00,68.3,56.5,30.25,South,175,5.0,5.0,66,0.00,,,0.00,0,Wunderground v.1.15,2013-07-12 21:28:00,
2013-07-12 22:58:00,66.6,56.5,30.25,South,175,3.0,4.0,70,0.00,,,0.00,0,Wunderground v.1.15,2013-07-12 21:58:00,
2013-07-12 23:28:00,65.7,56.0,30.25,South,175,5.0,5.0,71,0.00,,,0.00,0,Wunderground v.1.15,2013-07-12 22:28:00,
2013-07-12 23:58:00,66.1,56.4,30.25,South,175,5.0,7.0,71,0.00,,,0.00,0,Wunderground v.1.15,2013-07-12 22:58:00,